Terminal Aerodrome Forecast
Issued by NWS Wichita, KS

Home | Current Version | Previous Version | Text Only | Print | Product List | Glossary On
Versions: 1 2 3 4 5 6 7 8 9 10 11 12 13 14 15 16 17 18 19
000
FTUS43 KICT 040709 AAA
TAFICT
TAF AMD
KICT 040709Z 0407/0506 02015G22KT P6SM OVC035
      TEMPO 0407/0409 4SM -SN OVC025
     FM040900 02017G25KT 4SM -SN OVC022
      TEMPO 0411/0415 2SM -SN OVC012
     FM041900 02013KT P6SM SCT020 BKN100
     FM050000 01007KT P6SM SCT120=

USA.gov is the U.S. government's official web portal to all federal, state and local government web resources and services.